createdAt,value
2017-07-15T00:00:11.721Z,15.17
2017-07-15T00:01:21.985Z,15.17
2017-07-15T00:02:32.273Z,15.26
2017-07-15T00:03:42.540Z,15.22
2017-07-15T00:04:52.821Z,15.17
2017-07-15T00:06:03.348Z,15.17
2017-07-15T00:07:13.671Z,15.12
2017-07-15T00:08:23.317Z,15.11
2017-07-15T00:09:33.283Z,15.14
2017-07-15T00:10:43.223Z,15.1
2017-07-15T00:11:53.746Z,15
2017-07-15T00:13:04.250Z,15
2017-07-15T00:14:14.528Z,15.04
2017-07-15T00:15:24.171Z,14.92
2017-07-15T00:16:34.443Z,15
2017-07-15T00:17:44.978Z,14.92
2017-07-15T00:18:54.607Z,14.86
2017-07-15T00:20:04.577Z,14.9
2017-07-15T00:21:14.863Z,14.85
2017-07-15T00:22:24.810Z,14.87
2017-07-15T00:23:35.365Z,14.78
2017-07-15T00:24:45.625Z,14.78
2017-07-15T00:25:55.592Z,14.81
2017-07-15T00:27:05.867Z,14.71
2017-07-15T00:28:16.144Z,14.63
2017-07-15T00:29:26.018Z,14.62
2017-07-15T00:30:35.988Z,14.59
2017-07-15T00:31:45.947Z,14.59
2017-07-15T00:32:56.218Z,14.56
2017-07-15T00:34:06.487Z,14.52
2017-07-15T00:35:17.013Z,14.45
2017-07-15T00:36:26.957Z,14.41
2017-07-15T00:37:37.232Z,14.41
2017-07-15T00:38:47.500Z,14.44
2017-07-15T00:39:57.779Z,14.48
2017-07-15T00:41:08.297Z,14.37
2017-07-15T00:42:18.543Z,14.31
2017-07-15T00:43:28.512Z,14.36
2017-07-15T00:44:38.770Z,14.31
2017-07-15T00:45:48.727Z,14.3
2017-07-15T00:46:59.246Z,14.31
2017-07-15T00:48:09.227Z,14.34
2017-07-15T00:49:19.509Z,14.36
2017-07-15T00:50:29.456Z,14.33
2017-07-15T00:51:39.720Z,14.38
2017-07-15T00:52:50.247Z,14.31
2017-07-15T00:54:00.218Z,14.33
2017-07-15T00:55:10.495Z,14.33
2017-07-15T00:56:20.753Z,14.36
2017-07-15T00:57:31.042Z,14.31
2017-07-15T00:58:41.234Z,14.3
2017-07-15T00:59:51.496Z,14.31
2017-07-15T01:01:01.773Z,14.34
2017-07-15T01:02:12.037Z,14.36
2017-07-15T01:03:21.681Z,14.28
2017-07-15T01:04:31.877Z,14.31
2017-07-15T01:05:42.136Z,14.33
2017-07-15T01:06:52.401Z,14.33
2017-07-15T01:08:02.358Z,14.37
2017-07-15T01:09:11.991Z,14.45
2017-07-15T01:10:22.562Z,14.3
2017-07-15T01:11:32.508Z,14.43
2017-07-15T01:12:42.446Z,14.36
2017-07-15T01:13:52.719Z,14.37
2017-07-15T01:15:02.997Z,14.38
2017-07-15T01:16:13.509Z,14.37
2017-07-15T01:17:23.785Z,14.3
2017-07-15T01:18:34.048Z,14.31
2017-07-15T01:19:44.317Z,14.28
2017-07-15T01:20:54.580Z,14.31
2017-07-15T01:22:04.782Z,14.28
2017-07-15T01:23:14.410Z,14.25
2017-07-15T01:24:24.658Z,14.26
2017-07-15T01:25:34.922Z,14.22
2017-07-15T01:26:44.872Z,14.3
2017-07-15T01:27:55.068Z,14.28
2017-07-15T01:29:05.326Z,14.28
2017-07-15T01:30:15.293Z,14.37
2017-07-15T01:31:25.600Z,14.34
2017-07-15T01:32:35.875Z,14.44
2017-07-15T01:33:46.083Z,14.44
2017-07-15T01:34:56.351Z,14.44
2017-07-15T01:36:06.603Z,14.48
2017-07-15T01:37:16.857Z,14.53
2017-07-15T01:38:26.807Z,14.53
2017-07-15T01:39:37.327Z,14.52
2017-07-15T01:40:47.269Z,14.63
2017-07-15T01:41:57.559Z,14.66
2017-07-15T01:43:07.823Z,14.66
2017-07-15T01:44:17.791Z,14.62
2017-07-15T01:45:28.004Z,14.61
2017-07-15T01:46:38.256Z,14.71
2017-07-15T01:47:47.882Z,14.74
2017-07-15T01:48:58.156Z,14.67
2017-07-15T01:50:08.437Z,14.74
2017-07-15T01:51:18.952Z,14.79
2017-07-15T01:52:28.612Z,14.7
2017-07-15T01:53:38.249Z,14.71
2017-07-15T01:54:48.505Z,14.71
2017-07-15T01:55:58.771Z,14.73
2017-07-15T01:57:09.287Z,14.7
2017-07-15T01:58:19.552Z,14.7
2017-07-15T01:59:29.958Z,14.66
2017-07-15T02:00:40.222Z,14.71
2017-07-15T02:01:50.502Z,14.66
2017-07-15T02:03:01.012Z,14.59
2017-07-15T02:04:11.287Z,14.63
2017-07-15T02:05:21.223Z,14.52
2017-07-15T02:06:31.488Z,14.58
2017-07-15T02:07:41.440Z,14.56
2017-07-15T02:08:51.644Z,14.61
2017-07-15T02:10:01.910Z,14.52
2017-07-15T02:11:11.879Z,14.58
2017-07-15T02:12:22.156Z,14.53
2017-07-15T02:13:32.113Z,14.55
2017-07-15T02:14:42.305Z,14.55
2017-07-15T02:15:52.573Z,14.58
2017-07-15T02:17:02.840Z,14.51
2017-07-15T02:18:13.108Z,14.55
2017-07-15T02:19:23.066Z,14.53
2017-07-15T02:20:33.278Z,14.53
2017-07-15T02:21:43.550Z,14.44
2017-07-15T02:22:53.810Z,14.49
2017-07-15T02:24:04.095Z,14.45
2017-07-15T02:25:14.356Z,14.41
2017-07-15T02:26:24.892Z,14.43
2017-07-15T02:27:35.185Z,14.44
2017-07-15T02:28:45.449Z,14.44
2017-07-15T02:29:55.707Z,14.49
2017-07-15T02:31:05.963Z,14.43
2017-07-15T02:32:16.160Z,14.45
2017-07-15T02:33:26.421Z,14.49
2017-07-15T02:34:36.684Z,14.43
2017-07-15T02:35:46.636Z,14.44
2017-07-15T02:36:56.881Z,14.44
2017-07-15T02:38:07.401Z,14.48
2017-07-15T02:39:17.343Z,14.4
2017-07-15T02:40:27.310Z,14.38
2017-07-15T02:41:37.557Z,14.36
2017-07-15T02:42:47.872Z,14.33
2017-07-15T02:43:58.380Z,14.3
2017-07-15T02:45:08.325Z,14.28
2017-07-15T02:46:18.309Z,14.36
2017-07-15T02:47:28.257Z,14.31
2017-07-15T02:48:38.535Z,14.33
2017-07-15T02:49:49.059Z,14.31
2017-07-15T02:50:59.319Z,14.22
2017-07-15T02:52:09.266Z,14.28
2017-07-15T02:53:19.255Z,14.25
2017-07-15T02:54:29.528Z,14.36
2017-07-15T02:55:39.728Z,14.25
2017-07-15T02:56:50.033Z,14.31
2017-07-15T02:57:59.987Z,14.19
2017-07-15T02:59:10.281Z,14.23
2017-07-15T03:00:19.915Z,14.2
2017-07-15T03:01:30.121Z,14.25
2017-07-15T03:02:40.384Z,14.22
2017-07-15T03:03:50.658Z,14.23
2017-07-15T03:05:00.953Z,14.2
2017-07-15T03:06:11.225Z,14.19
2017-07-15T03:07:21.487Z,14.2
2017-07-15T03:08:31.426Z,14.22
2017-07-15T03:09:41.704Z,14.22
2017-07-15T03:10:51.656Z,14.18
2017-07-15T03:12:01.608Z,14.15
2017-07-15T03:13:12.112Z,14.08
2017-07-15T03:14:22.384Z,14.12
2017-07-15T03:15:32.654Z,14.04
2017-07-15T03:16:42.609Z,14.04
2017-07-15T03:17:52.572Z,14.11
2017-07-15T03:19:02.769Z,14.07
2017-07-15T03:20:13.043Z,14.03
2017-07-15T03:21:22.986Z,14
2017-07-15T03:22:32.949Z,14.01
2017-07-15T03:23:42.887Z,14.01
2017-07-15T03:24:53.438Z,13.93
2017-07-15T03:26:03.384Z,13.95
2017-07-15T03:27:13.648Z,13.95
2017-07-15T03:28:22.966Z,13.98
2017-07-15T03:29:32.937Z,13.98
2017-07-15T03:30:43.132Z,14.01
2017-07-15T03:31:53.399Z,13.94
2017-07-15T03:33:03.670Z,13.86
2017-07-15T03:34:13.614Z,13.87
2017-07-15T03:35:23.239Z,13.89
2017-07-15T03:36:33.434Z,13.89
2017-07-15T03:37:43.697Z,13.82
2017-07-15T03:38:53.651Z,13.82
2017-07-15T03:40:03.598Z,13.73
2017-07-15T03:41:13.549Z,13.73
2017-07-15T03:42:24.075Z,13.71
2017-07-15T03:43:33.690Z,13.73
2017-07-15T03:44:43.932Z,13.79
2017-07-15T03:45:53.557Z,13.73
2017-07-15T03:47:03.485Z,13.76
2017-07-15T03:48:13.053Z,13.71
2017-07-15T03:49:22.984Z,13.75
2017-07-15T03:50:33.264Z,13.78
2017-07-15T03:51:43.525Z,13.78
2017-07-15T03:52:53.797Z,13.7
2017-07-15T03:54:04.322Z,13.76
2017-07-15T03:55:14.577Z,13.76
2017-07-15T03:56:24.842Z,13.76
2017-07-15T03:57:35.120Z,13.76
2017-07-15T03:58:45.404Z,13.78
2017-07-15T03:59:55.916Z,13.71
2017-07-15T04:01:06.189Z,13.73
2017-07-15T04:02:16.450Z,13.73
2017-07-15T04:03:26.714Z,13.73
2017-07-15T04:04:36.993Z,13.86
2017-07-15T04:05:47.507Z,13.75
2017-07-15T04:06:57.779Z,13.79
2017-07-15T04:08:08.034Z,13.85
2017-07-15T04:09:18.302Z,13.91
2017-07-15T04:10:28.564Z,13.95
2017-07-15T04:11:39.076Z,13.97
2017-07-15T04:12:49.346Z,13.97
2017-07-15T04:13:59.598Z,14
2017-07-15T04:15:09.866Z,13.97
2017-07-15T04:16:19.840Z,14.04
2017-07-15T04:17:30.358Z,14.03
2017-07-15T04:18:40.634Z,14.08
2017-07-15T04:19:50.270Z,14.04
2017-07-15T04:21:00.542Z,14.05
2017-07-15T04:22:10.815Z,14.04
2017-07-15T04:23:21.325Z,14.03
2017-07-15T04:24:31.578Z,14.12
2017-07-15T04:25:41.848Z,14.11
2017-07-15T04:26:52.116Z,14.16
2017-07-15T04:28:02.387Z,14.12
2017-07-15T04:29:12.943Z,14.16
2017-07-15T04:30:22.882Z,14.19
2017-07-15T04:31:33.153Z,14.2
2017-07-15T04:32:43.414Z,14.3
2017-07-15T04:33:53.678Z,14.26
2017-07-15T04:35:03.881Z,14.25
2017-07-15T04:36:14.160Z,14.28
2017-07-15T04:37:24.108Z,14.23
2017-07-15T04:38:34.374Z,14.34
2017-07-15T04:39:44.633Z,14.28
2017-07-15T04:40:55.154Z,14.28
2017-07-15T04:42:05.432Z,14.33
2017-07-15T04:43:15.392Z,14.43
2017-07-15T04:44:25.663Z,14.38
2017-07-15T04:45:35.939Z,14.49
2017-07-15T04:46:46.466Z,14.43
2017-07-15T04:47:56.097Z,14.45
2017-07-15T04:49:06.373Z,14.48
2017-07-15T04:50:16.638Z,14.56
2017-07-15T04:51:26.587Z,14.51
2017-07-15T04:52:37.101Z,14.53
2017-07-15T04:53:47.070Z,14.51
2017-07-15T04:54:57.025Z,14.49
2017-07-15T04:56:06.979Z,14.53
2017-07-15T04:57:17.243Z,14.59
2017-07-15T04:58:27.757Z,14.59
2017-07-15T04:59:38.027Z,14.67
2017-07-15T05:00:48.312Z,14.7
2017-07-15T05:01:58.595Z,14.81
2017-07-15T05:03:08.875Z,14.78
2017-07-15T05:04:19.402Z,14.82
2017-07-15T05:05:29.675Z,14.85
2017-07-15T05:06:39.950Z,14.86
2017-07-15T05:07:50.227Z,14.82
2017-07-15T05:09:00.166Z,14.73
2017-07-15T05:10:10.349Z,14.92
2017-07-15T05:11:20.617Z,14.86
2017-07-15T05:12:30.254Z,14.9
2017-07-15T05:13:40.509Z,15
2017-07-15T05:14:50.459Z,15.05
2017-07-15T05:16:00.653Z,15.1
2017-07-15T05:17:10.290Z,15.17
2017-07-15T05:18:20.236Z,15.07
2017-07-15T05:19:30.195Z,15.1
2017-07-15T05:20:40.478Z,15.22
2017-07-15T05:21:50.991Z,15.19
2017-07-15T05:23:00.624Z,15.14
2017-07-15T05:24:10.887Z,15.19
2017-07-15T05:25:21.162Z,15.22
2017-07-15T05:26:31.111Z,15.32
2017-07-15T05:27:41.652Z,15.18
2017-07-15T05:28:51.926Z,15.29
2017-07-15T05:30:01.895Z,15.3
2017-07-15T05:31:12.152Z,15.22
2017-07-15T05:32:22.415Z,15.19
2017-07-15T05:33:32.831Z,15.17
2017-07-15T05:34:43.106Z,15.23
2017-07-15T05:35:53.377Z,15.26
2017-07-15T05:37:03.641Z,15.27
2017-07-15T05:38:13.943Z,15.33
2017-07-15T05:39:24.148Z,15.37
2017-07-15T05:40:34.086Z,15.33
2017-07-15T05:41:43.710Z,15.45
2017-07-15T05:42:53.667Z,15.41
2017-07-15T05:44:03.612Z,15.47
2017-07-15T05:45:14.128Z,15.52
2017-07-15T05:46:24.393Z,15.43
2017-07-15T05:47:34.031Z,15.51
2017-07-15T05:48:44.303Z,15.47
2017-07-15T05:49:54.576Z,15.52
2017-07-15T05:51:04.477Z,15.51
2017-07-15T05:52:14.783Z,15.59
2017-07-15T05:53:24.725Z,15.66
2017-07-15T05:54:34.680Z,15.73
2017-07-15T05:55:44.949Z,15.76
2017-07-15T05:56:55.474Z,15.78
2017-07-15T05:58:05.730Z,15.85
2017-07-15T05:59:15.986Z,15.91
2017-07-15T06:00:26.274Z,15.99
2017-07-15T06:01:36.538Z,15.98
2017-07-15T06:02:47.059Z,15.99
2017-07-15T06:03:56.699Z,16.02
2017-07-15T06:05:06.989Z,15.98
2017-07-15T06:06:16.618Z,15.91
2017-07-15T06:07:26.872Z,15.96
2017-07-15T06:08:37.068Z,15.99
2017-07-15T06:09:46.705Z,16.08
2017-07-15T06:10:56.961Z,16.09
2017-07-15T06:12:06.923Z,16.13
2017-07-15T06:13:17.197Z,16.21
2017-07-15T06:14:27.779Z,16.21
2017-07-15T06:15:38.040Z,16.22
2017-07-15T06:16:48.322Z,16.24
2017-07-15T06:17:58.594Z,16.24
2017-07-15T06:19:08.537Z,16.24
2017-07-15T06:20:18.742Z,16.21
2017-07-15T06:21:28.703Z,16.31
2017-07-15T06:22:38.981Z,16.29
2017-07-15T06:23:49.249Z,16.32
2017-07-15T06:24:59.526Z,16.34
2017-07-15T06:26:09.738Z,16.39
2017-07-15T06:27:20.005Z,16.4
2017-07-15T06:28:29.948Z,16.44
2017-07-15T06:29:40.224Z,16.47
2017-07-15T06:30:50.509Z,16.47
2017-07-15T06:32:01.021Z,16.4
2017-07-15T06:33:11.302Z,16.41
2017-07-15T06:34:21.592Z,16.4
2017-07-15T06:35:31.548Z,16.4
2017-07-15T06:36:41.505Z,16.44
2017-07-15T06:37:52.012Z,16.44
2017-07-15T06:39:02.284Z,16.54
2017-07-15T06:40:12.546Z,16.57
2017-07-15T06:41:22.522Z,16.54
2017-07-15T06:42:32.457Z,16.61
2017-07-15T06:43:43.024Z,16.72
2017-07-15T06:44:53.292Z,16.66
2017-07-15T06:46:03.570Z,16.72
2017-07-15T06:47:13.515Z,16.8
2017-07-15T06:48:23.799Z,16.86
2017-07-15T06:49:34.370Z,16.83
2017-07-15T06:50:44.315Z,16.95
2017-07-15T06:51:54.596Z,16.97
2017-07-15T06:53:04.861Z,16.99
2017-07-15T06:54:15.128Z,17.07
2017-07-15T06:55:25.334Z,17.17
2017-07-15T06:56:35.297Z,17.16
2017-07-15T06:57:45.564Z,17.27
2017-07-15T06:58:55.831Z,17.27
2017-07-15T07:00:05.776Z,17.3
2017-07-15T07:01:15.990Z,17.32
2017-07-15T07:02:26.276Z,17.37
2017-07-15T07:03:36.544Z,17.5
2017-07-15T07:04:46.820Z,17.49
2017-07-15T07:05:56.774Z,17.54
2017-07-15T07:07:06.349Z,17.63
2017-07-15T07:08:16.625Z,17.71
2017-07-15T07:09:26.269Z,17.6
2017-07-15T07:10:36.240Z,17.72
2017-07-15T07:11:46.176Z,17.73
2017-07-15T07:12:56.747Z,17.88
2017-07-15T07:14:06.388Z,17.88
2017-07-15T07:15:16.661Z,17.86
2017-07-15T07:16:26.604Z,17.95
2017-07-15T07:17:36.235Z,18.02
2017-07-15T07:18:46.432Z,18.16
2017-07-15T07:19:56.385Z,18.12
2017-07-15T07:21:06.348Z,18.11
2017-07-15T07:22:15.986Z,18.27
2017-07-15T07:23:26.237Z,18.16
2017-07-15T07:24:36.424Z,18.27
2017-07-15T07:25:46.712Z,18.23
2017-07-15T07:26:56.662Z,18.27
2017-07-15T07:28:06.613Z,18.18
2017-07-15T07:29:16.576Z,18.18
2017-07-15T07:30:27.100Z,18.33
2017-07-15T07:31:37.374Z,18.39
2017-07-15T07:32:47.335Z,18.36
2017-07-15T07:33:57.612Z,18.34
2017-07-15T07:35:07.556Z,18.45
2017-07-15T07:36:18.091Z,18.57
2017-07-15T07:37:28.367Z,18.6
2017-07-15T07:38:38.300Z,18.67
2017-07-15T07:39:48.580Z,18.64
2017-07-15T07:40:58.537Z,18.66
2017-07-15T07:42:08.427Z,18.71
2017-07-15T07:43:18.709Z,18.91
2017-07-15T07:44:28.969Z,18.82
2017-07-15T07:45:39.241Z,18.89
2017-07-15T07:46:49.507Z,18.86
2017-07-15T07:48:00.043Z,18.83
2017-07-15T07:49:10.324Z,18.91
2017-07-15T07:50:20.598Z,18.96
2017-07-15T07:51:30.789Z,19
2017-07-15T07:52:41.055Z,19.01
2017-07-15T07:53:51.257Z,19.15
2017-07-15T07:55:01.532Z,19.09
2017-07-15T07:56:11.826Z,19.08
2017-07-15T07:57:22.095Z,18.98
2017-07-15T07:58:32.046Z,19.16
2017-07-15T07:59:42.564Z,19.22
2017-07-15T08:00:52.514Z,19.26
2017-07-15T08:02:02.819Z,19.32
2017-07-15T08:03:12.759Z,19.34
2017-07-15T08:04:22.709Z,19.34
2017-07-15T08:05:32.289Z,19.37
2017-07-15T08:06:42.570Z,19.42
2017-07-15T08:07:52.541Z,19.38
2017-07-15T08:09:02.497Z,19.39
2017-07-15T08:10:12.451Z,19.44
2017-07-15T08:11:22.971Z,19.47
2017-07-15T08:12:33.269Z,19.52
2017-07-15T08:13:42.943Z,19.56
2017-07-15T08:14:52.914Z,19.63
2017-07-15T08:16:02.873Z,19.62
2017-07-15T08:17:13.444Z,19.66
2017-07-15T08:18:23.698Z,19.75
2017-07-15T08:19:33.669Z,19.81
2017-07-15T08:20:43.940Z,19.7
2017-07-15T08:21:53.591Z,19.59
2017-07-15T08:23:04.105Z,19.59
2017-07-15T08:24:14.066Z,19.57
2017-07-15T08:25:24.336Z,19.59
2017-07-15T08:26:34.615Z,19.67
2017-07-15T08:27:44.895Z,19.77
2017-07-15T08:28:55.117Z,19.78
2017-07-15T08:30:04.442Z,19.79
2017-07-15T08:31:14.715Z,19.94
2017-07-15T08:32:24.976Z,20.04
2017-07-15T08:33:35.245Z,20.08
2017-07-15T08:34:45.140Z,20.14
2017-07-15T08:35:55.078Z,20.22
2017-07-15T08:37:05.371Z,20.19
2017-07-15T08:38:15.650Z,20.3
2017-07-15T08:39:25.923Z,20.34
2017-07-15T08:40:36.449Z,20.36
2017-07-15T08:41:46.423Z,20.5
2017-07-15T08:42:56.388Z,20.67
2017-07-15T08:44:06.680Z,20.71
2017-07-15T08:45:16.635Z,21.05
2017-07-15T08:46:26.853Z,21.37
2017-07-15T08:47:37.126Z,21.77
2017-07-15T08:48:47.422Z,22.18
2017-07-15T08:49:57.695Z,22.51
2017-07-15T08:51:07.640Z,22.67
2017-07-15T08:52:17.906Z,22.84
2017-07-15T08:53:28.184Z,22.93
2017-07-15T08:54:38.143Z,23.04
2017-07-15T08:55:48.428Z,23.11
2017-07-15T08:56:58.712Z,23.02
2017-07-15T08:58:09.249Z,23.08
2017-07-15T08:59:19.537Z,23.23
2017-07-15T09:00:29.824Z,23.55
2017-07-15T09:01:39.793Z,23.79
2017-07-15T09:02:49.755Z,23.99
2017-07-15T09:03:59.700Z,23.95
2017-07-15T09:05:09.990Z,24.19
2017-07-15T09:06:19.958Z,24.32
2017-07-15T09:07:29.931Z,24.34
2017-07-15T09:08:40.230Z,24.38
2017-07-15T09:09:50.767Z,24.34
2017-07-15T09:11:00.403Z,24.5
2017-07-15T09:12:10.686Z,24.68
2017-07-15T09:13:20.966Z,25.07
2017-07-15T09:14:31.261Z,25.25
2017-07-15T09:15:41.467Z,25.15
2017-07-15T09:16:51.123Z,25.18
2017-07-15T09:18:01.457Z,25
2017-07-15T09:19:11.431Z,24.48
2017-07-15T09:20:21.720Z,24.36
2017-07-15T09:21:31.934Z,24.46
2017-07-15T09:22:42.216Z,24.58
2017-07-15T09:23:52.175Z,24.56
2017-07-15T09:25:02.438Z,24.47
2017-07-15T09:26:12.712Z,24.32
2017-07-15T09:27:22.935Z,24.22
2017-07-15T09:28:33.209Z,24.14
2017-07-15T09:29:43.484Z,24.21
2017-07-15T09:30:53.763Z,24.24
2017-07-15T09:32:04.055Z,24.36
2017-07-15T09:33:14.277Z,24.46
2017-07-15T09:34:24.246Z,24.48
2017-07-15T09:35:34.528Z,24.48
2017-07-15T09:36:44.787Z,24.61
2017-07-15T09:37:55.118Z,24.75
2017-07-15T09:39:05.635Z,24.63
2017-07-15T09:40:15.602Z,24.78
2017-07-15T09:41:25.883Z,24.84
2017-07-15T09:42:35.853Z,25.01
2017-07-15T09:43:45.822Z,25.04
2017-07-15T09:44:56.403Z,25.16
2017-07-15T09:46:06.681Z,25.3
2017-07-15T09:47:16.643Z,25.22
2017-07-15T09:48:26.927Z,24.84
2017-07-15T09:49:37.211Z,24.53
2017-07-15T09:50:47.749Z,24.26
2017-07-15T09:51:58.030Z,23.96
2017-07-15T09:53:08.001Z,23.7
2017-07-15T09:54:18.289Z,23.44
2017-07-15T09:55:28.568Z,23.26
2017-07-15T09:56:39.102Z,23.32
2017-07-15T09:57:49.368Z,23.37
2017-07-15T09:58:59.658Z,23.32
2017-07-15T10:00:09.618Z,23.58
2017-07-15T10:01:19.904Z,23.95
2017-07-15T10:02:30.165Z,24.36
2017-07-15T10:03:40.431Z,24.37
2017-07-15T10:04:50.712Z,24.47
2017-07-15T10:06:01.052Z,24.5
2017-07-15T10:07:11.012Z,24.66
2017-07-15T10:08:21.541Z,24.25
2017-07-15T10:09:31.496Z,23.88
2017-07-15T10:10:41.770Z,23.52
2017-07-15T10:11:52.045Z,22.88
2017-07-15T10:13:02.323Z,22.73
2017-07-15T10:14:12.553Z,22.63
2017-07-15T10:15:22.834Z,22.52
2017-07-15T10:16:33.115Z,22.56
2017-07-15T10:17:43.402Z,22.4
2017-07-15T10:18:53.358Z,22.3
2017-07-15T10:20:03.911Z,22.31
2017-07-15T10:21:14.201Z,22.34
2017-07-15T10:22:24.168Z,22.43
2017-07-15T10:23:34.130Z,22.67
2017-07-15T10:24:44.100Z,22.93
2017-07-15T10:25:54.308Z,23.17
2017-07-15T10:27:04.583Z,23.18
2017-07-15T10:28:14.891Z,23.08
2017-07-15T10:29:24.850Z,23.13
2017-07-15T10:30:34.845Z,23.2
2017-07-15T10:31:45.446Z,23.08
2017-07-15T10:32:55.414Z,23.02
2017-07-15T10:34:05.695Z,22.91
2017-07-15T10:35:15.961Z,22.73
2017-07-15T10:36:26.246Z,22.43
2017-07-15T10:37:36.154Z,22.3
2017-07-15T10:38:46.429Z,22.18
2017-07-15T10:39:56.705Z,22
2017-07-15T10:41:06.985Z,21.88
2017-07-15T10:42:16.958Z,21.72
2017-07-15T10:43:27.487Z,21.53
2017-07-15T10:44:37.770Z,21.48
2017-07-15T10:45:47.412Z,21.43
2017-07-15T10:46:57.375Z,21.5
2017-07-15T10:48:07.661Z,21.3
2017-07-15T10:49:17.872Z,21.26
2017-07-15T10:50:28.146Z,21.14
2017-07-15T10:51:38.436Z,21.03
2017-07-15T10:52:48.387Z,20.93
2017-07-15T10:53:58.362Z,20.77
2017-07-15T10:55:08.879Z,20.85
2017-07-15T10:56:18.837Z,20.86
2017-07-15T10:57:28.803Z,21.11
2017-07-15T10:58:39.068Z,21.32
2017-07-15T10:59:49.339Z,21.63
2017-07-15T11:00:59.873Z,22
2017-07-15T11:02:09.851Z,22.33
2017-07-15T11:03:20.137Z,22.49
2017-07-15T11:04:30.424Z,22.52
2017-07-15T11:05:40.077Z,22.76
2017-07-15T11:06:50.621Z,22.83
2017-07-15T11:08:00.925Z,23.07
2017-07-15T11:09:11.214Z,23.36
2017-07-15T11:10:21.183Z,23.59
2017-07-15T11:11:31.477Z,23.63
2017-07-15T11:12:42.027Z,23.86
2017-07-15T11:13:52.306Z,23.95
2017-07-15T11:15:02.283Z,24.1
2017-07-15T11:16:12.616Z,24.28
2017-07-15T11:17:22.910Z,24.66
2017-07-15T11:18:33.454Z,24.69
2017-07-15T11:19:43.733Z,24.47
2017-07-15T11:20:54.018Z,24.28
2017-07-15T11:22:03.978Z,24.21
2017-07-15T11:23:14.250Z,23.85
2017-07-15T11:24:24.509Z,23.76
2017-07-15T11:25:34.800Z,23.81
2017-07-15T11:26:45.078Z,23.37
2017-07-15T11:27:55.378Z,23.04
2017-07-15T11:29:05.357Z,22.99
2017-07-15T11:30:15.576Z,22.99
2017-07-15T11:31:25.844Z,23.04
2017-07-15T11:32:36.109Z,23.23
2017-07-15T11:33:46.372Z,23.58
2017-07-15T11:34:56.663Z,23.85
2017-07-15T11:36:07.188Z,23.92
2017-07-15T11:37:17.468Z,24.1
2017-07-15T11:38:27.739Z,24.31
2017-07-15T11:39:37.386Z,24.48
2017-07-15T11:40:47.027Z,24.06
2017-07-15T11:41:57.557Z,23.89
2017-07-15T11:43:07.832Z,23.95
2017-07-15T11:44:18.127Z,23.95
2017-07-15T11:45:28.421Z,23.69
2017-07-15T11:46:38.728Z,23.42
2017-07-15T11:47:48.925Z,23.66
2017-07-15T11:48:59.195Z,23.71
2017-07-15T11:50:09.491Z,23.74
2017-07-15T11:51:19.153Z,23.67
2017-07-15T11:52:29.129Z,23.81
2017-07-15T11:53:39.360Z,23.71
2017-07-15T11:54:49.661Z,23.89
2017-07-15T11:55:59.932Z,23.91
2017-07-15T11:57:10.205Z,23.73
2017-07-15T11:58:19.548Z,23.47
2017-07-15T11:59:30.082Z,23.56
2017-07-15T12:00:40.365Z,23.49
2017-07-15T12:01:50.655Z,23.59
2017-07-15T12:03:00.928Z,23.58
2017-07-15T12:04:11.206Z,23.82
2017-07-15T12:05:21.783Z,24.04
2017-07-15T12:06:32.074Z,24.06
2017-07-15T12:07:42.368Z,23.86
2017-07-15T12:08:52.645Z,24.14
2017-07-15T12:10:02.926Z,24.34
2017-07-15T12:11:13.460Z,24.51
2017-07-15T12:12:23.766Z,24.58
2017-07-15T12:13:34.053Z,24.62
2017-07-15T12:14:43.690Z,24.44
2017-07-15T12:15:53.649Z,24.19
2017-07-15T12:17:03.868Z,24.22
2017-07-15T12:18:14.160Z,24.26
2017-07-15T12:19:24.436Z,24.22
2017-07-15T12:20:34.738Z,24.21
2017-07-15T12:21:45.016Z,24.24
2017-07-15T12:22:55.532Z,24.29
2017-07-15T12:24:05.810Z,24.47
2017-07-15T12:25:16.108Z,24.5
2017-07-15T12:26:26.402Z,24.32
2017-07-15T12:27:36.684Z,23.81
2017-07-15T12:28:47.222Z,23.74
2017-07-15T12:29:57.514Z,24.03
2017-07-15T12:31:07.821Z,24.07
2017-07-15T12:32:18.108Z,24.18
2017-07-15T12:33:28.077Z,24.24
2017-07-15T12:34:38.291Z,24.5
2017-07-15T12:35:48.569Z,24.84
2017-07-15T12:36:58.850Z,25.04
2017-07-15T12:38:09.137Z,24.89
2017-07-15T12:39:18.472Z,24.86
2017-07-15T12:40:28.686Z,24.79
2017-07-15T12:41:38.332Z,24.79
2017-07-15T12:42:48.611Z,24.46
2017-07-15T12:43:58.603Z,24.01
2017-07-15T12:45:08.235Z,23.81
2017-07-15T12:46:18.772Z,23.74
2017-07-15T12:47:28.743Z,24
2017-07-15T12:48:39.026Z,24.19
2017-07-15T12:49:49.025Z,24.21
2017-07-15T12:50:59.015Z,24.24
2017-07-15T12:52:09.569Z,24.19
2017-07-15T12:53:19.847Z,23.91
2017-07-15T12:54:30.127Z,23.88
2017-07-15T12:55:40.100Z,23.86
2017-07-15T12:56:50.382Z,24.01
2017-07-15T12:58:00.910Z,24.04
2017-07-15T12:59:11.207Z,23.99
2017-07-15T13:00:21.170Z,23.99
2017-07-15T13:01:31.136Z,23.94
2017-07-15T13:02:41.412Z,23.92
2017-07-15T13:03:52.007Z,23.94
2017-07-15T13:05:02.286Z,24.25
2017-07-15T13:06:12.550Z,24.24
2017-07-15T13:07:22.851Z,24.07
2017-07-15T13:08:33.141Z,23.92
2017-07-15T13:09:43.024Z,23.92
2017-07-15T13:10:52.681Z,23.86
2017-07-15T13:12:02.976Z,24.16
2017-07-15T13:13:13.253Z,24.51
2017-07-15T13:14:23.227Z,24.53
2017-07-15T13:15:33.774Z,23.99
2017-07-15T13:16:44.037Z,23.99
2017-07-15T13:17:54.309Z,23.91
2017-07-15T13:19:04.580Z,23.82
2017-07-15T13:20:14.898Z,23.71
2017-07-15T13:21:25.417Z,23.89
2017-07-15T13:22:35.697Z,24.04
2017-07-15T13:23:45.970Z,24.18
2017-07-15T13:24:56.264Z,24.06
2017-07-15T13:26:06.541Z,24.19
2017-07-15T13:27:17.090Z,24.26
2017-07-15T13:28:27.053Z,24.28
2017-07-15T13:29:37.356Z,24.21
2017-07-15T13:30:47.647Z,24.09
2017-07-15T13:31:57.922Z,23.99
2017-07-15T13:33:08.457Z,24.04
2017-07-15T13:34:18.741Z,24.26
2017-07-15T13:35:28.704Z,24.06
2017-07-15T13:36:38.659Z,24.04
2017-07-15T13:37:48.615Z,24
2017-07-15T13:38:59.156Z,23.62
2017-07-15T13:40:09.126Z,23.73
2017-07-15T13:41:19.412Z,23.84
2017-07-15T13:42:29.683Z,23.86
2017-07-15T13:43:39.964Z,24.07
2017-07-15T13:44:50.514Z,23.84
2017-07-15T13:46:00.790Z,23.96
2017-07-15T13:47:11.059Z,24.16
2017-07-15T13:48:21.353Z,24.47
2017-07-15T13:49:31.325Z,24.51
2017-07-15T13:50:41.920Z,24.4
2017-07-15T13:51:51.900Z,24.19
2017-07-15T13:53:02.181Z,24.26
2017-07-15T13:54:12.451Z,24.71
2017-07-15T13:55:22.738Z,25
2017-07-15T13:56:33.269Z,25.4
2017-07-15T13:57:43.545Z,25.51
2017-07-15T13:58:53.204Z,25.41
2017-07-15T14:00:03.480Z,25.04
2017-07-15T14:01:13.435Z,24.97
2017-07-15T14:02:23.963Z,24.74
2017-07-15T14:03:34.239Z,24.53
2017-07-15T14:04:43.885Z,24.68
2017-07-15T14:05:54.154Z,24.68
2017-07-15T14:07:04.432Z,24.44
2017-07-15T14:08:14.650Z,24.48
2017-07-15T14:09:24.919Z,24.69
2017-07-15T14:10:35.207Z,24.85
2017-07-15T14:11:45.489Z,24.84
2017-07-15T14:12:55.763Z,24.89
2017-07-15T14:14:06.300Z,25.01
2017-07-15T14:15:16.594Z,25.46
2017-07-15T14:16:26.877Z,25.67
2017-07-15T14:17:36.526Z,25.61
2017-07-15T14:18:46.492Z,25.76
2017-07-15T14:19:57.034Z,26.18
2017-07-15T14:21:07.312Z,26.56
2017-07-15T14:22:17.577Z,26.36
2017-07-15T14:23:27.845Z,26.31
2017-07-15T14:24:38.123Z,26.41
2017-07-15T14:25:48.346Z,26.31
2017-07-15T14:26:58.641Z,26.45
2017-07-15T14:28:08.604Z,26.6
2017-07-15T14:29:19.046Z,26.93
2017-07-15T14:30:29.332Z,27.18
2017-07-15T14:31:39.855Z,27.33
2017-07-15T14:32:49.838Z,27.33
2017-07-15T14:34:00.115Z,27.29
2017-07-15T14:35:10.380Z,26.98
2017-07-15T14:36:20.661Z,26.73
2017-07-15T14:37:31.204Z,26.56
2017-07-15T14:38:41.482Z,26.3
2017-07-15T14:39:51.769Z,26.04
2017-07-15T14:41:02.045Z,25.93
2017-07-15T14:42:12.016Z,25.85
2017-07-15T14:43:22.548Z,25.78
2017-07-15T14:44:32.821Z,25.56
2017-07-15T14:45:43.101Z,25.12
2017-07-15T14:46:53.084Z,24.89
2017-07-15T14:48:03.387Z,24.86
2017-07-15T14:49:13.927Z,24.68
2017-07-15T14:50:23.879Z,24.51
2017-07-15T14:51:33.843Z,24.29
2017-07-15T14:52:43.813Z,24.18
2017-07-15T14:53:54.117Z,23.99
2017-07-15T14:55:04.694Z,23.89
2017-07-15T14:56:14.337Z,23.56
2017-07-15T14:57:24.342Z,23.48
2017-07-15T14:58:34.674Z,23.48
2017-07-15T14:59:44.959Z,23.54
2017-07-15T15:00:55.171Z,23.45
2017-07-15T15:02:05.448Z,23.34
2017-07-15T15:03:15.722Z,23.18
2017-07-15T15:04:25.982Z,23.07
2017-07-15T15:05:36.267Z,22.7
2017-07-15T15:06:46.805Z,22.47